createdAt,value
2018-06-17T00:01:33.970Z,83.19
2018-06-17T00:04:02.651Z,83.54
2018-06-17T00:06:31.441Z,82.76
2018-06-17T00:09:00.151Z,83.49
2018-06-17T00:11:28.756Z,83.13
2018-06-17T00:13:57.474Z,83.63
2018-06-17T00:16:26.399Z,84.16
2018-06-17T00:18:55.535Z,84.32
2018-06-17T00:21:24.272Z,84.67
2018-06-17T00:23:53.196Z,84.50
2018-06-17T00:26:21.900Z,84.59
2018-06-17T00:28:50.641Z,84.89
2018-06-17T00:31:19.576Z,85.10
2018-06-17T00:33:48.562Z,86.04
2018-06-17T00:36:17.241Z,85.84
2018-06-17T00:38:46.108Z,85.25
2018-06-17T00:41:14.912Z,85.44
2018-06-17T00:43:43.962Z,86.25
2018-06-17T00:46:12.838Z,86.05
2018-06-17T00:48:41.748Z,86.09
2018-06-17T00:51:10.648Z,86.31
2018-06-17T00:53:39.401Z,86.80
2018-06-17T00:56:08.215Z,87.34
2018-06-17T00:58:36.951Z,87.47
2018-06-17T01:01:05.620Z,88.00
2018-06-17T01:03:34.500Z,88.10
2018-06-17T01:06:03.374Z,88.24
2018-06-17T01:08:32.235Z,88.15
2018-06-17T01:11:01.346Z,87.71
2018-06-17T01:13:30.042Z,87.68
2018-06-17T01:15:58.953Z,87.31
2018-06-17T01:18:27.667Z,87.32
2018-06-17T01:20:56.488Z,88.29
2018-06-17T01:23:25.289Z,88.75
2018-06-17T01:25:54.130Z,88.91
2018-06-17T01:28:22.910Z,89.22
2018-06-17T01:30:51.665Z,89.46
2018-06-17T01:33:20.433Z,89.57
2018-06-17T01:35:49.375Z,89.36
2018-06-17T01:38:18.009Z,89.37
2018-06-17T01:40:47.095Z,89.65
2018-06-17T01:43:15.893Z,89.98
2018-06-17T01:45:44.722Z,90.38
2018-06-17T01:48:13.554Z,90.70
2018-06-17T01:50:42.373Z,90.69
2018-06-17T01:53:11.143Z,91.51
2018-06-17T01:55:40.005Z,91.90
2018-06-17T01:58:08.768Z,91.53
2018-06-17T02:00:37.736Z,91.27
2018-06-17T02:03:11.640Z,91.20
2018-06-17T02:07:51.673Z,90.56
2018-06-17T02:10:25.609Z,90.34
2018-06-17T02:12:54.394Z,89.75
2018-06-17T02:15:23.184Z,89.79
2018-06-17T02:17:51.926Z,89.59
2018-06-17T02:20:20.586Z,89.74
2018-06-17T02:22:49.632Z,89.71
2018-06-17T02:25:18.392Z,89.36
2018-06-17T02:27:47.114Z,89.32
2018-06-17T02:30:16.238Z,88.99
2018-06-17T02:32:44.965Z,88.71
2018-06-17T02:35:13.722Z,88.74
2018-06-17T02:37:42.321Z,88.58
2018-06-17T02:40:11.052Z,88.36
2018-06-17T02:42:39.772Z,88.50
2018-06-17T02:45:13.808Z,88.09
2018-06-17T02:47:47.709Z,87.62
2018-06-17T02:50:21.604Z,87.55
2018-06-17T02:52:55.597Z,87.40
2018-06-17T02:55:24.520Z,87.34
2018-06-17T02:57:53.458Z,87.26
2018-06-17T03:00:22.117Z,87.44
2018-06-17T03:02:51.049Z,87.30
2018-06-17T03:05:20.215Z,87.98
2018-06-17T03:07:49.180Z,87.02
2018-06-17T03:10:18.098Z,86.53
2018-06-17T03:12:46.925Z,86.67
2018-06-17T03:15:15.693Z,86.06
2018-06-17T03:17:44.536Z,85.87
2018-06-17T03:20:13.362Z,86.19
2018-06-17T03:22:42.237Z,85.53
2018-06-17T03:25:16.346Z,85.31
2018-06-17T03:27:50.297Z,85.28
2018-06-17T03:30:25.096Z,84.67
2018-06-17T03:32:58.949Z,85.41
2018-06-17T03:35:32.871Z,85.86
2018-06-17T03:38:02.089Z,84.92
2018-06-17T03:40:30.768Z,85.34
2018-06-17T03:42:59.609Z,85.08
2018-06-17T03:45:28.369Z,84.39
2018-06-17T03:47:57.035Z,84.22
2018-06-17T03:50:26.053Z,84.31
2018-06-17T03:52:54.895Z,84.36
2018-06-17T03:55:23.776Z,83.88
2018-06-17T03:57:52.736Z,83.77
2018-06-17T04:00:21.617Z,84.40
2018-06-17T04:02:50.552Z,85.21
2018-06-17T04:05:24.692Z,85.22
2018-06-17T04:07:53.445Z,84.90
2018-06-17T04:10:22.334Z,84.06
2018-06-17T04:12:51.197Z,83.08
2018-06-17T04:15:20.137Z,83.12
2018-06-17T04:17:48.920Z,82.89
2018-06-17T04:20:17.460Z,82.86
2018-06-17T04:22:45.981Z,82.79
2018-06-17T04:25:14.475Z,82.26
2018-06-17T04:27:43.026Z,82.24
2018-06-17T04:30:11.626Z,81.24
2018-06-17T04:32:41.274Z,80.29
2018-06-17T04:35:09.862Z,79.32
2018-06-17T04:37:38.383Z,78.92
2018-06-17T04:40:06.970Z,78.46
2018-06-17T04:42:35.525Z,78.09
2018-06-17T04:45:04.026Z,76.03
2018-06-17T04:47:32.589Z,73.77
2018-06-17T04:50:01.169Z,72.21
2018-06-17T04:52:29.673Z,70.08
2018-06-17T04:54:58.182Z,69.37
2018-06-17T04:57:26.724Z,68.54
2018-06-17T04:59:55.305Z,65.70
2018-06-17T05:02:23.930Z,60.99
2018-06-17T05:04:52.618Z,59.43
2018-06-17T05:07:21.125Z,58.48
2018-06-17T05:09:49.653Z,57.42
2018-06-17T05:12:18.218Z,55.92
2018-06-17T05:14:46.871Z,56.24
2018-06-17T05:17:15.410Z,50.39
2018-06-17T05:19:44.264Z,48.97
2018-06-17T05:22:13.287Z,51.96
2018-06-17T05:24:41.812Z,50.80
2018-06-17T05:27:10.375Z,49.56
2018-06-17T05:29:38.956Z,47.29
2018-06-17T05:32:07.656Z,45.86
2018-06-17T05:34:36.234Z,44.52
2018-06-17T05:37:04.814Z,43.82
2018-06-17T05:39:33.362Z,43.65
2018-06-17T05:42:01.935Z,46.29
2018-06-17T05:44:30.476Z,46.52
2018-06-17T05:46:59.038Z,46.16
2018-06-17T05:49:27.597Z,44.52
2018-06-17T05:51:56.153Z,40.59
2018-06-17T05:54:24.703Z,39.32
2018-06-17T05:57:09.406Z,37.52
2018-06-17T05:59:43.743Z,35.70
2018-06-17T06:02:13.764Z,33.41
2018-06-17T06:07:37.387Z,41.16
2018-06-17T06:10:06.134Z,47.01
2018-06-17T06:12:34.699Z,49.29
2018-06-17T06:15:03.341Z,49.96
2018-06-17T06:17:31.925Z,45.90
2018-06-17T06:20:00.525Z,41.00
2018-06-17T06:22:29.108Z,43.65
2018-06-17T06:24:57.666Z,43.67
2018-06-17T06:27:26.218Z,38.46
2018-06-17T06:29:54.843Z,38.23
2018-06-17T06:32:23.488Z,39.31
2018-06-17T06:34:52.040Z,37.79
2018-06-17T06:37:20.656Z,34.82
2018-06-17T06:39:49.184Z,32.37
2018-06-17T06:42:17.772Z,28.96
2018-06-17T06:44:46.421Z,28.76
2018-06-17T06:47:15.018Z,27.94
2018-06-17T06:49:43.601Z,27.16
2018-06-17T06:52:12.210Z,27.21
2018-06-17T06:54:40.726Z,25.67
2018-06-17T06:57:09.529Z,27.38
2018-06-17T06:59:38.112Z,31.31
2018-06-17T07:02:17.866Z,34.15
2018-06-17T07:05:04.687Z,35.52
2018-06-17T07:07:45.975Z,35.76
2018-06-17T07:10:24.568Z,36.15
2018-06-17T07:12:54.009Z,37.82
2018-06-17T07:15:35.107Z,37.48
2018-06-17T07:18:15.764Z,38.28
2018-06-17T07:20:45.534Z,37.82
2018-06-17T07:23:15.337Z,33.84
2018-06-17T07:26:55.176Z,31.83
2018-06-17T07:29:36.592Z,30.69
2018-06-17T07:32:05.887Z,33.96
2018-06-17T07:34:35.265Z,36.82
2018-06-17T07:37:04.119Z,37.59
2018-06-17T07:41:41.629Z,40.22
2018-06-17T07:44:11.275Z,41.35
2018-06-17T07:46:39.820Z,39.63
2018-06-17T07:49:58.940Z,37.20
2018-06-17T07:52:38.936Z,37.56
2018-06-17T07:55:07.551Z,36.91
2018-06-17T07:57:36.094Z,37.56
2018-06-17T08:00:04.740Z,35.84
2018-06-17T08:02:33.281Z,33.51
2018-06-17T08:05:01.806Z,32.90
2018-06-17T08:07:30.376Z,33.76
2018-06-17T08:09:58.959Z,32.90
2018-06-17T08:12:27.463Z,33.15
2018-06-17T08:14:56.088Z,32.18
2018-06-17T08:17:24.686Z,32.06
2018-06-17T08:19:53.268Z,34.21
2018-06-17T08:22:21.767Z,34.93
2018-06-17T08:24:50.353Z,34.14
2018-06-17T08:27:19.358Z,35.35
2018-06-17T08:29:48.642Z,34.96
2018-06-17T08:32:21.395Z,36.45
2018-06-17T08:34:50.203Z,36.13
2018-06-17T08:37:18.712Z,35.55
2018-06-17T08:39:47.288Z,36.81
2018-06-17T08:42:15.975Z,37.96
2018-06-17T08:44:44.481Z,35.43
2018-06-17T08:47:13.293Z,35.64
2018-06-17T08:49:41.914Z,31.11
2018-06-17T08:52:10.737Z,32.84
2018-06-17T08:54:39.599Z,36.29
2018-06-17T08:57:08.588Z,36.96
2018-06-17T08:59:37.322Z,31.93
2018-06-17T09:02:06.379Z,28.87
2018-06-17T09:04:35.328Z,26.47
2018-06-17T09:07:04.220Z,24.78
2018-06-17T09:09:32.923Z,24.37
2018-06-17T09:12:01.938Z,23.62
2018-06-17T09:14:30.560Z,22.02
2018-06-17T09:16:59.111Z,22.83
2018-06-17T09:19:27.874Z,23.93
2018-06-17T09:21:56.783Z,23.37
2018-06-17T09:24:25.591Z,25.14
2018-06-17T09:26:54.203Z,26.07
2018-06-17T09:29:22.785Z,26.87
2018-06-17T09:31:51.451Z,27.64
2018-06-17T09:34:19.897Z,24.54
2018-06-17T09:36:48.425Z,23.14
2018-06-17T09:39:17.584Z,23.27
2018-06-17T09:41:46.751Z,22.34
2018-06-17T09:44:15.628Z,23.96
2018-06-17T09:46:44.193Z,23.33
2018-06-17T09:49:12.788Z,23.36
2018-06-17T09:51:41.300Z,21.90
2018-06-17T09:54:09.854Z,22.49
2018-06-17T09:56:38.353Z,22.76
2018-06-17T09:59:06.901Z,21.86
2018-06-17T10:01:35.505Z,23.87
2018-06-17T10:04:04.011Z,26.61
2018-06-17T10:06:32.565Z,26.06
2018-06-17T10:09:01.174Z,25.49
2018-06-17T10:11:29.724Z,25.30
2018-06-17T10:13:58.227Z,26.87
2018-06-17T10:16:26.796Z,24.01
2018-06-17T10:18:55.380Z,27.27
2018-06-17T10:21:24.640Z,25.65
2018-06-17T10:23:53.166Z,27.30
2018-06-17T10:26:21.679Z,28.06
2018-06-17T10:28:50.275Z,26.36
2018-06-17T10:31:18.865Z,25.21
2018-06-17T10:33:47.783Z,25.73
2018-06-17T10:36:16.404Z,25.67
2018-06-17T10:38:45.037Z,26.06
2018-06-17T10:41:13.569Z,28.16
2018-06-17T10:43:42.083Z,27.72
2018-06-17T10:46:10.610Z,28.40
2018-06-17T10:48:39.131Z,28.81
2018-06-17T10:51:07.677Z,27.96
2018-06-17T10:53:39.026Z,30.31
2018-06-17T10:56:10.483Z,30.15
2018-06-17T10:58:40.807Z,30.32
2018-06-17T11:01:10.060Z,31.00
2018-06-17T11:03:38.639Z,31.45
2018-06-17T11:06:07.346Z,30.91
2018-06-17T11:08:35.923Z,30.28
2018-06-17T11:11:04.416Z,32.43
2018-06-17T11:13:34.229Z,32.56
2018-06-17T11:16:02.798Z,32.31
2018-06-17T11:18:31.477Z,33.83
2018-06-17T11:21:00.000Z,32.16
2018-06-17T11:23:28.524Z,31.58
2018-06-17T11:25:57.089Z,31.61
2018-06-17T11:28:25.633Z,34.13
2018-06-17T11:30:54.193Z,33.09
2018-06-17T11:33:22.713Z,34.69
2018-06-17T11:35:51.293Z,36.36
2018-06-17T11:38:19.808Z,37.74
2018-06-17T11:40:48.484Z,37.30
2018-06-17T11:43:17.043Z,37.43
2018-06-17T11:45:45.633Z,39.18
2018-06-17T11:48:14.247Z,39.50
2018-06-17T11:50:42.811Z,39.68
2018-06-17T11:53:11.429Z,41.13
2018-06-17T11:55:39.950Z,40.97
2018-06-17T11:58:09.081Z,41.42
2018-06-17T12:00:37.744Z,41.62
2018-06-17T12:03:06.253Z,42.08
2018-06-17T12:05:34.841Z,42.77
2018-06-17T12:08:03.394Z,42.52
2018-06-17T12:10:31.919Z,42.17
2018-06-17T12:13:00.523Z,42.42
2018-06-17T12:15:29.070Z,42.58
2018-06-17T12:17:57.633Z,42.85
2018-06-17T12:20:26.176Z,42.41
2018-06-17T12:22:54.711Z,42.47
2018-06-17T12:25:23.280Z,42.11
2018-06-17T12:27:51.856Z,41.66
2018-06-17T12:30:20.401Z,41.93
2018-06-17T12:32:48.941Z,41.74
2018-06-17T12:35:17.525Z,41.96
2018-06-17T12:37:46.119Z,40.30
2018-06-17T12:40:14.657Z,40.71
2018-06-17T12:42:43.214Z,39.88
2018-06-17T12:45:11.746Z,38.17
2018-06-17T12:47:40.317Z,38.52
2018-06-17T12:50:08.884Z,37.56
2018-06-17T12:52:37.432Z,38.88
2018-06-17T12:55:06.071Z,38.94
2018-06-17T12:57:34.647Z,38.72
2018-06-17T13:00:03.229Z,38.33
2018-06-17T13:02:31.759Z,37.11
2018-06-17T13:05:00.337Z,37.32
2018-06-17T13:07:28.843Z,36.91
2018-06-17T13:09:57.373Z,38.47
2018-06-17T13:12:25.936Z,36.59
2018-06-17T13:14:54.442Z,39.06
2018-06-17T13:17:22.996Z,40.11
2018-06-17T13:19:51.572Z,40.36
2018-06-17T13:22:20.161Z,39.00
2018-06-17T13:24:48.689Z,40.17
2018-06-17T13:27:17.225Z,40.85
2018-06-17T13:29:45.813Z,40.82
2018-06-17T13:32:14.667Z,41.78
2018-06-17T13:34:43.289Z,42.16
2018-06-17T13:37:12.026Z,42.86
2018-06-17T13:39:40.598Z,43.15
2018-06-17T13:42:09.186Z,42.87
2018-06-17T13:44:37.699Z,41.57
2018-06-17T13:47:06.441Z,41.35
2018-06-17T13:49:34.993Z,41.91
2018-06-17T13:52:03.558Z,41.73
2018-06-17T13:54:32.156Z,42.10
2018-06-17T13:57:00.703Z,42.43
2018-06-17T13:59:29.255Z,42.37
2018-06-17T14:01:57.776Z,42.56
2018-06-17T14:04:26.321Z,41.09
2018-06-17T14:06:54.885Z,39.04
2018-06-17T14:09:23.428Z,37.56
2018-06-17T14:11:51.987Z,38.51
2018-06-17T14:14:20.542Z,37.11
2018-06-17T14:16:49.132Z,37.54
2018-06-17T14:19:17.730Z,36.67
2018-06-17T14:21:46.288Z,36.00
2018-06-17T14:24:15.093Z,35.26
2018-06-17T14:26:43.682Z,34.57
2018-06-17T14:29:12.219Z,35.75
2018-06-17T14:31:40.741Z,36.45
2018-06-17T14:34:09.287Z,35.14
2018-06-17T14:36:37.902Z,34.99
2018-06-17T14:39:09.090Z,34.45
2018-06-17T14:41:37.637Z,34.84
2018-06-17T14:44:11.592Z,34.24
2018-06-17T14:46:45.487Z,33.88
2018-06-17T14:49:19.341Z,34.17
2018-06-17T14:51:53.166Z,34.15
2018-06-17T14:54:21.864Z,33.93
2018-06-17T14:56:50.399Z,35.07
2018-06-17T14:59:18.997Z,34.16
2018-06-17T15:01:47.574Z,35.06
2018-06-17T15:04:16.148Z,34.93
2018-06-17T15:06:44.642Z,35.25
2018-06-17T15:09:13.182Z,35.06
2018-06-17T15:11:41.682Z,35.20
2018-06-17T15:14:10.197Z,35.87
2018-06-17T15:16:38.807Z,36.43
2018-06-17T15:19:07.385Z,36.35
2018-06-17T15:21:35.947Z,36.56
2018-06-17T15:24:04.570Z,38.20
2018-06-17T15:26:33.343Z,39.21
2018-06-17T15:29:01.989Z,39.03
2018-06-17T15:31:35.913Z,39.76
2018-06-17T15:34:09.790Z,40.08
2018-06-17T15:36:43.728Z,39.35
2018-06-17T15:39:17.625Z,40.21
2018-06-17T15:41:47.172Z,38.98
2018-06-17T15:44:15.825Z,40.42
2018-06-17T15:46:44.460Z,39.59
2018-06-17T15:49:13.075Z,39.90
2018-06-17T15:51:41.613Z,39.78
2018-06-17T15:54:10.204Z,40.04
2018-06-17T15:56:38.842Z,40.14
2018-06-17T15:59:07.783Z,39.29
2018-06-17T16:01:37.075Z,39.78
2018-06-17T16:04:06.494Z,40.23
2018-06-17T16:06:35.480Z,39.97
2018-06-17T16:09:06.468Z,39.93
2018-06-17T16:11:38.112Z,40.56
2018-06-17T16:15:13.541Z,39.41
2018-06-17T16:17:47.334Z,40.12
2018-06-17T16:20:21.234Z,40.28
2018-06-17T16:22:49.818Z,40.15
2018-06-17T16:25:18.408Z,41.24
2018-06-17T16:27:47.089Z,41.40
2018-06-17T16:30:15.640Z,41.80
2018-06-17T16:32:44.226Z,42.10
2018-06-17T16:35:13.497Z,43.50
2018-06-17T16:37:42.073Z,43.73
2018-06-17T16:40:10.779Z,44.20
2018-06-17T16:42:39.321Z,42.58
2018-06-17T16:45:08.053Z,42.87
2018-06-17T16:47:36.661Z,42.03
2018-06-17T16:50:05.449Z,43.38
2018-06-17T16:52:39.330Z,40.66
2018-06-17T16:55:13.219Z,42.32
2018-06-17T16:57:46.980Z,42.38
2018-06-17T17:00:19.131Z,41.56
2018-06-17T17:02:48.244Z,42.76
2018-06-17T17:05:17.112Z,42.55
2018-06-17T17:07:45.923Z,41.92
2018-06-17T17:10:14.425Z,42.15
2018-06-17T17:12:42.928Z,42.21
2018-06-17T17:15:11.495Z,42.62
2018-06-17T17:17:40.035Z,42.58
2018-06-17T17:20:08.574Z,41.73
2018-06-17T17:22:37.185Z,41.57
2018-06-17T17:25:05.702Z,41.89
2018-06-17T17:27:34.212Z,41.98
2018-06-17T17:30:02.767Z,42.86
2018-06-17T17:32:36.577Z,42.71
2018-06-17T17:35:10.486Z,43.38
2018-06-17T17:37:44.276Z,43.95
2018-06-17T17:40:18.184Z,43.31
2018-06-17T17:42:46.689Z,44.14
2018-06-17T17:45:23.916Z,44.06
2018-06-17T17:47:52.450Z,44.94
2018-06-17T17:50:21.001Z,43.95
2018-06-17T17:52:49.554Z,45.14
2018-06-17T17:55:18.285Z,44.74
2018-06-17T17:57:47.575Z,45.46
2018-06-17T18:00:16.548Z,45.55
2018-06-17T18:02:45.498Z,45.07
2018-06-17T18:05:14.341Z,45.45
2018-06-17T18:07:43.029Z,45.53
2018-06-17T18:10:11.734Z,45.79
2018-06-17T18:12:40.474Z,46.87
2018-06-17T18:15:09.154Z,46.53
2018-06-17T18:17:39.153Z,46.30
2018-06-17T18:20:09.503Z,47.45
2018-06-17T18:22:39.451Z,47.22
2018-06-17T18:25:13.452Z,46.91
2018-06-17T18:27:47.255Z,47.46
2018-06-17T18:30:21.173Z,47.49
2018-06-17T18:32:56.006Z,47.77
2018-06-17T18:35:29.985Z,48.71
2018-06-17T18:38:00.747Z,48.55
2018-06-17T18:40:29.745Z,48.37
2018-06-17T18:42:58.391Z,48.71
2018-06-17T18:45:27.195Z,48.86
2018-06-17T18:47:55.857Z,49.01
2018-06-17T18:50:24.582Z,49.74
2018-06-17T18:52:53.205Z,49.49
2018-06-17T18:55:22.007Z,49.07
2018-06-17T18:57:50.730Z,49.09
2018-06-17T19:00:19.512Z,49.27
2018-06-17T19:02:48.609Z,49.95
2018-06-17T19:05:17.706Z,49.59
2018-06-17T19:07:47.016Z,49.42
2018-06-17T19:10:21.404Z,49.59
2018-06-17T19:12:55.565Z,49.79
2018-06-17T19:15:29.471Z,50.77
2018-06-17T19:18:09.786Z,50.95
2018-06-17T19:20:39.966Z,51.26
2018-06-17T19:23:08.651Z,51.30
2018-06-17T19:25:38.081Z,51.31
2018-06-17T19:28:07.793Z,51.08
2018-06-17T19:30:36.467Z,51.23
2018-06-17T19:33:05.294Z,51.96
2018-06-17T19:35:34.815Z,51.42
2018-06-17T19:38:03.632Z,51.29
2018-06-17T19:40:32.836Z,51.84
2018-06-17T19:43:02.096Z,52.31
2018-06-17T19:45:31.675Z,52.45
2018-06-17T19:48:00.598Z,51.89
2018-06-17T19:50:35.134Z,51.97
2018-06-17T19:53:09.283Z,52.46
2018-06-17T19:55:43.539Z,52.82
2018-06-17T19:58:18.418Z,53.35
2018-06-17T20:00:49.749Z,53.00
2018-06-17T20:03:18.468Z,52.92
2018-06-17T20:05:47.827Z,52.72
2018-06-17T20:08:17.272Z,52.71
2018-06-17T20:10:46.302Z,53.92
2018-06-17T20:13:15.162Z,53.73
2018-06-17T20:15:44.206Z,54.57
2018-06-17T20:18:13.148Z,53.98
2018-06-17T20:20:41.951Z,54.11
2018-06-17T20:23:10.946Z,54.88
2018-06-17T20:25:39.792Z,54.53
2018-06-17T20:28:08.719Z,54.59
2018-06-17T20:30:37.548Z,55.22
2018-06-17T20:33:11.669Z,55.43
2018-06-17T20:35:45.538Z,55.59
2018-06-17T20:38:19.783Z,55.98
2018-06-17T20:40:54.052Z,55.35
2018-06-17T20:43:28.241Z,55.54
2018-06-17T20:45:57.507Z,55.84
2018-06-17T20:48:26.329Z,55.86
2018-06-17T20:50:55.022Z,55.71
2018-06-17T20:53:23.885Z,55.99
2018-06-17T20:55:52.856Z,56.87
2018-06-17T20:58:21.555Z,57.46
2018-06-17T21:00:50.236Z,56.43
2018-06-17T21:03:18.888Z,57.07
2018-06-17T21:05:47.793Z,57.17
2018-06-17T21:08:16.517Z,56.43
2018-06-17T21:10:45.286Z,56.29
2018-06-17T21:13:14.147Z,56.67
2018-06-17T21:15:42.767Z,57.81
2018-06-17T21:18:11.573Z,57.17
2018-06-17T21:20:45.238Z,57.06
2018-06-17T21:23:19.110Z,57.29
2018-06-17T21:25:52.895Z,56.93
2018-06-17T21:28:21.606Z,56.89
2018-06-17T21:30:50.257Z,57.49
2018-06-17T21:33:19.074Z,57.63
2018-06-17T21:35:47.674Z,57.31
2018-06-17T21:38:16.370Z,57.95
2018-06-17T21:40:45.049Z,57.23
2018-06-17T21:43:13.706Z,57.64
2018-06-17T21:45:42.340Z,57.68
2018-06-17T21:48:11.122Z,57.10
2018-06-17T21:50:39.862Z,57.30
2018-06-17T21:53:08.465Z,57.50
2018-06-17T21:55:37.415Z,58.19
2018-06-17T21:58:06.462Z,58.35
2018-06-17T22:00:35.174Z,58.08
2018-06-17T22:03:03.988Z,58.52
2018-06-17T22:05:32.584Z,57.93
2018-06-17T22:08:06.519Z,58.15
2018-06-17T22:10:40.564Z,59.00
2018-06-17T22:13:09.491Z,58.62
2018-06-17T22:15:43.367Z,58.26
2018-06-17T22:18:12.133Z,59.15
2018-06-17T22:20:40.660Z,59.00
2018-06-17T22:23:09.199Z,58.53
2018-06-17T22:25:37.757Z,58.85
2018-06-17T22:28:06.293Z,59.15
2018-06-17T22:30:34.863Z,59.49
2018-06-17T22:33:03.401Z,60.07
2018-06-17T22:35:31.934Z,60.53
2018-06-17T22:38:00.441Z,60.78
2018-06-17T22:40:29.109Z,61.55
2018-06-17T22:42:57.677Z,61.80
2018-06-17T22:45:26.183Z,61.82
2018-06-17T22:47:59.729Z,61.73
2018-06-17T22:50:28.571Z,61.78
2018-06-17T22:53:08.272Z,61.65
2018-06-17T22:55:36.909Z,61.63
2018-06-17T22:58:10.578Z,61.23
2018-06-17T23:00:44.483Z,61.84
2018-06-17T23:03:18.333Z,61.40
2018-06-17T23:05:52.049Z,61.18
2018-06-17T23:08:25.873Z,61.46
2018-06-17T23:10:54.403Z,61.73
2018-06-17T23:13:22.999Z,61.91
2018-06-17T23:15:51.537Z,62.08
2018-06-17T23:18:20.065Z,62.35
2018-06-17T23:20:48.606Z,62.13
2018-06-17T23:23:17.238Z,62.47
2018-06-17T23:25:45.816Z,62.58
2018-06-17T23:28:14.512Z,62.85
2018-06-17T23:30:43.124Z,62.95
2018-06-17T23:33:11.682Z,63.43
2018-06-17T23:35:40.765Z,64.08
2018-06-17T23:38:09.375Z,64.47
2018-06-17T23:40:38.017Z,63.99
2018-06-17T23:43:06.731Z,64.36
2018-06-17T23:45:35.490Z,64.13
2018-06-17T23:48:09.305Z,64.32
2018-06-17T23:50:43.020Z,65.19
2018-06-17T23:55:24.451Z,63.98
2018-06-17T23:57:53.049Z,64.61
